Ludington, MI

3:34 PM EDT on March 23, 2017 (GMT -0400)
Mason County

Weather History for KLDM - March, 2013

Change the Weather History Date:

Monday, March 11, 2013

  Actual Average Record
Temperature  
Mean Temperature 41 °F -  
Max Temperature 47 °F 39 °F 68 °F (1973)
Min Temperature 32 °F 21 °F 3 °F (1960)
Degree Days  
Heating Degree Days 24    
Moisture  
Dew Point 37 °F    
Average Humidity 90    
Maximum Humidity 92    
Minimum Humidity 81    
Precipitation  
Precipitation 0.20 in - - ()
Sea Level Pressure  
Sea Level Pressure 29.56 in    
Wind  
Wind Speed 8 mph (WSW)    
Max Wind Speed 15 mph    
Max Gust Speed 22 mph    
Visibility 3 miles    
Events Fog , Rain , Snow    
Averages and records for this station are not official NWS values.
T = Trace of Precipitation, MM = Missing Value Source: NWS Daily Summary

Daily Weather History Graph

Daily Weather History Graph

Search for Another Location

Airport or City:

Trip Planner

Search our weather history database for the weather conditions in past years. The results will help you decide how hot, cold, wet, or windy it might be!

Date:

Astronomy

Mar. 11, 2013 Rise Set
Actual Time 8:04 AM EDT 7:47 PM EDT
Civil Twilight 7:35 AM EDT 8:15 PM EDT
Nautical Twilight 7:02 AM EDT 8:49 PM EDT
Astronomical Twilight 6:28 AM EDT 9:23 PM EDT
Moon 7:37 AM EDT (3/11) 8:00 PM EDT (3/11)
Length of Visible Light 12h 40m
Length of Day
11h 42m
Waning Crescent, 0% of the Moon is Illuminated
Mar 11
Waning Crescent
Mar 11
New
Mar 19
First Quarter
Mar 27
Full
Apr 3
Last Quarter

Hourly Weather History & Observations

Time (EDT) Temp. Windchill Dew Point Humidity Pressure Visibility Wind Dir Wind Speed Gust Speed Precip Events Conditions
12:14 AM 42.8 °F 37.0 °F 40.1 °F 90% 29.64 in 7.0 mi ESE 10.4 mph - N/A   Overcast
12:35 AM 43.2 °F 37.9 °F 40.6 °F 91% 29.64 in 7.0 mi SE 9.2 mph - N/A Rain Light Rain
12:55 AM 43.5 °F 37.9 °F 40.3 °F 88% 29.63 in 7.0 mi SE 10.4 mph - N/A Rain Light Rain
1:14 AM 43.9 °F 39.3 °F 40.1 °F 87% 29.62 in 7.0 mi SSE 8.1 mph - N/A Rain Light Rain
1:35 AM 46.2 °F 41.2 °F 41.4 °F 83% 29.62 in 10.0 mi South 10.4 mph 16.1 mph N/A   Overcast
1:55 AM 47.7 °F - 42.1 °F 81% 29.62 in 10.0 mi South 12.7 mph 18.4 mph N/A   Overcast
2:14 AM 47.5 °F - 42.6 °F 83% 29.63 in 10.0 mi South 10.4 mph - N/A   Overcast
2:55 AM 47.7 °F - 43.7 °F 86% 29.62 in 7.0 mi SSW 13.8 mph 21.9 mph N/A   Overcast
3:14 AM 45.1 °F 38.4 °F 41.5 °F 87% 29.62 in 7.0 mi SSW 15.0 mph 21.9 mph N/A   Overcast
3:35 AM 45.1 °F 39.1 °F 41.9 °F 88% 29.62 in 4.0 mi South 12.7 mph 20.7 mph N/A Rain Light Rain
3:55 AM 45.1 °F 39.5 °F 42.1 °F 89% 29.60 in 3.0 mi South 11.5 mph - N/A Rain Light Rain
4:14 AM 44.4 °F 39.0 °F 41.4 °F 89% 29.59 in 3.0 mi South 10.4 mph - N/A   Overcast
4:35 AM 44.4 °F 41.2 °F 41.7 °F 90% 29.58 in 1.0 mi South 5.8 mph 9.2 mph N/A   Overcast
4:55 AM 43.9 °F 40.5 °F 41.0 °F 90% 29.58 in 0.5 mi South 5.8 mph - N/A Fog Fog
5:14 AM 43.2 °F 38.4 °F 40.5 °F 90% 29.57 in 0.2 mi South 8.1 mph - N/A Fog Fog
5:35 AM 43.2 °F 39.7 °F 40.5 °F 90% 29.57 in 0.2 mi South 5.8 mph - N/A Fog Fog
5:55 AM 43.2 °F 38.4 °F 40.5 °F 90% 29.57 in 0.2 mi South 8.1 mph - N/A Fog Fog
6:15 AM 43.5 °F 37.5 °F 41.0 °F 91% 29.57 in 0.2 mi South 11.5 mph - N/A Fog Fog
6:35 AM 43.9 °F 38.3 °F 41.4 °F 91% 29.57 in 0.8 mi SSW 10.4 mph - N/A   Overcast
6:54 AM 43.3 °F 37.7 °F 40.6 °F 90% 29.57 in 0.8 mi South 10.4 mph - N/A   Overcast
7:15 AM 43.5 °F 37.5 °F 41.0 °F 91% 29.57 in 2.0 mi SSW 11.5 mph - N/A   Overcast
7:35 AM 42.8 °F 36.6 °F 40.1 °F 90% 29.57 in 4.0 mi SSW 11.5 mph 19.6 mph N/A   Overcast
7:54 AM 41.4 °F 34.3 °F 38.8 °F 91% 29.57 in 0.5 mi SW 12.7 mph - N/A Fog Fog
8:15 AM 40.8 °F 32.9 °F 38.5 °F 91% 29.61 in 0.5 mi SSW 15.0 mph 18.4 mph N/A Fog Fog
8:34 AM 40.1 °F 33.6 °F 37.6 °F 91% 29.61 in 0.2 mi SSW 10.4 mph - N/A Fog Fog
8:55 AM 40.1 °F 35.3 °F 37.6 °F 91% 29.61 in 0.2 mi SSW 6.9 mph - N/A Fog Fog
9:15 AM 40.1 °F 34.7 °F 37.6 °F 91% 29.62 in 0.8 mi SW 8.1 mph - N/A   Overcast
9:34 AM 40.1 °F 35.3 °F 37.6 °F 91% 29.60 in 0.5 mi SW 6.9 mph - N/A Fog Fog
9:55 AM 40.1 °F 34.7 °F 37.6 °F 91% 29.60 in 0.5 mi WSW 8.1 mph - N/A Fog Fog
10:15 AM 38.8 °F 33.8 °F 36.3 °F 91% 29.59 in 0.2 mi SW 6.9 mph - N/A Fog Fog
10:34 AM 37.8 °F 34.2 °F 35.6 °F 92% 29.58 in 0.2 mi SW 4.6 mph - N/A Fog Fog
10:55 AM 39.9 °F 36.7 °F 37.4 °F 91% 29.58 in 0.2 mi SW 4.6 mph - N/A Fog Fog
11:15 AM 40.1 °F 38.0 °F 37.6 °F 91% 29.57 in 0.2 mi SW 3.5 mph - N/A Fog Fog
11:34 AM 40.1 °F 38.0 °F 37.6 °F 91% 29.57 in 0.2 mi SW 3.5 mph - N/A Fog Fog
11:55 AM 40.1 °F - 37.6 °F 91% 29.56 in 0.8 mi Calm Calm - N/A   Overcast
12:15 PM 40.1 °F - 37.6 °F 91% 29.56 in 0.8 mi Calm Calm - N/A   Overcast
12:34 PM 40.1 °F - 37.6 °F 91% 29.56 in 0.5 mi Calm Calm - N/A Rain Light Rain
12:55 PM 40.1 °F - 37.8 °F 91% 29.55 in 1.0 mi Calm Calm - N/A Rain Light Rain
1:15 PM 40.1 °F - 37.8 °F 91% 29.54 in 0.2 mi Calm Calm - 0.01 in Rain Rain
1:34 PM 40.1 °F - 37.8 °F 91% 29.53 in 0.5 mi Calm Calm - 0.03 in Rain Rain
1:55 PM 40.1 °F - 37.8 °F 91% 29.51 in 4.0 mi Calm Calm - 0.04 in Rain Rain
2:14 PM 40.1 °F - 37.8 °F 91% 29.51 in 5.0 mi Calm Calm - N/A Rain Rain
2:35 PM 40.1 °F - 37.8 °F 91% 29.50 in 5.0 mi Calm Calm - N/A   Light Drizzle
2:55 PM 40.1 °F - 37.8 °F 91% 29.50 in 4.0 mi Calm Calm - 0.01 in Rain Light Rain
3:14 PM 40.1 °F 38.0 °F 37.8 °F 91% 29.49 in 2.5 mi West 3.5 mph - 0.01 in Rain Light Rain
3:35 PM 40.1 °F - 37.8 °F 91% 29.48 in 3.0 mi Calm Calm - 0.02 in   Drizzle
3:54 PM 40.1 °F 38.0 °F 37.8 °F 91% 29.47 in 5.0 mi WNW 3.5 mph - 0.02 in   Drizzle
4:15 PM 37.6 °F 32.3 °F 35.2 °F 91% 29.46 in 4.0 mi WNW 6.9 mph - N/A   Overcast
4:35 PM 37.6 °F 34.0 °F 35.2 °F 91% 29.46 in 7.0 mi NW 4.6 mph - N/A Rain Rain
4:54 PM 37.6 °F 33.1 °F 35.2 °F 91% 29.46 in 2.5 mi NW 5.8 mph - 0.01 in   Heavy Drizzle
5:15 PM 37.6 °F 35.1 °F 35.2 °F 91% 29.46 in 1.8 mi NNW 3.5 mph - N/A   Heavy Drizzle
5:35 PM 36.5 °F 32.7 °F 34.2 °F 91% 29.46 in 2.0 mi North 4.6 mph - 0.03 in Rain Rain
5:54 PM 37.4 °F 29.8 °F 35.1 °F 91% 29.45 in 3.0 mi North 11.5 mph - 0.06 in Rain Light Rain
6:15 PM 36.5 °F 31.8 °F 34.2 °F 91% 29.49 in 5.0 mi West 5.8 mph - N/A   Drizzle
6:35 PM 35.2 °F - 32.7 °F 91% 29.50 in 2.0 mi Calm Calm - 0.03 in Rain Rain
7:15 PM 35.1 °F 32.2 °F 32.5 °F 91% 29.52 in 2.5 mi West 3.5 mph - 0.02 in   Overcast
7:35 PM 35.1 °F 32.2 °F 32.5 °F 91% 29.53 in 3.0 mi WNW 3.5 mph - 0.02 in Snow Light Snow
7:54 PM 35.1 °F 32.2 °F 32.5 °F 91% 29.54 in 3.0 mi West 3.5 mph - 0.02 in Snow Light Snow
8:15 PM 35.1 °F 30.1 °F 32.5 °F 91% 29.54 in 2.5 mi West 5.8 mph - N/A Snow Light Snow
8:35 PM 35.1 °F 29.3 °F 32.5 °F 91% 29.55 in 5.0 mi WNW 6.9 mph - N/A Snow Light Snow
8:54 PM 35.1 °F 29.3 °F 32.5 °F 91% 29.56 in 3.0 mi WNW 6.9 mph - N/A Snow Light Snow
9:15 PM 35.1 °F 29.3 °F 32.5 °F 91% 29.57 in 7.0 mi WNW 6.9 mph - N/A Snow Light Snow
9:35 PM 35.1 °F 30.1 °F 32.5 °F 91% 29.57 in 5.0 mi WNW 5.8 mph - 0.01 in Snow Light Snow
9:54 PM 35.1 °F 29.3 °F 32.5 °F 91% 29.58 in 7.0 mi NW 6.9 mph - 0.01 in Snow Light Snow
10:15 PM 35.1 °F 28.6 °F 32.4 °F 90% 29.59 in 3.0 mi NW 8.1 mph 18.4 mph N/A Snow Light Snow
10:34 PM 35.1 °F 29.3 °F 32.4 °F 90% 29.59 in 4.0 mi NW 6.9 mph - N/A Snow Light Snow
10:54 PM 35.1 °F 27.9 °F 32.4 °F 90% 29.60 in 10.0 mi NW 9.2 mph - N/A   Overcast
11:15 PM 35.1 °F 29.3 °F 32.2 °F 89% 29.60 in 4.0 mi NW 6.9 mph - N/A Snow Light Snow
11:34 PM 35.1 °F 30.1 °F 32.0 °F 89% 29.61 in 7.0 mi NW 5.8 mph - N/A Snow Light Snow
11:55 PM 32.5 °F 27.1 °F 29.7 °F 89% 29.62 in 10.0 mi NW 5.8 mph 18.4 mph N/A   Overcast